Time;durP1;ratioP1;P1;durP2;ratioP2;P2;SDS_P1;SDS_P2;PMS_P1;PMS_P2;Temp;Humidity;BMP_temperature;BMP_pressure;BME280_temperature;BME280_humidity;BME280_pressure;Samples;Min_cycle;Max_cycle;Signal;HPM_P1;HPM_P2
2022/03/12 00:01:00;;;;;;;8.40;6.37;;;;;;;3.39;43.62;95598.81;4302523;33;20183;-61
2022/03/12 00:03:26;;;;;;;6.60;6.00;;;;;;;3.24;43.71;95594.16;4305912;33;20224;-61
2022/03/12 00:05:58;;;;;;;6.70;6.07;;;;;;;3.21;43.57;95588.59;4317486;33;20244;-60
2022/03/12 00:09:02;;;;;;;7.57;5.97;;;;;;;2.95;44.12;95601.31;4297457;33;20333;-61
2022/03/12 00:11:23;;;;;;;6.62;5.57;;;;;;;3.09;43.83;95597.38;4315262;33;20217;-61
2022/03/12 00:13:50;;;;;;;7.07;5.97;;;;;;;3.08;43.85;95603.66;4295611;33;20194;-61
2022/03/12 00:16:22;;;;;;;7.90;6.15;;;;;;;3.14;43.66;95607.09;4293175;33;20265;-61
2022/03/12 00:18:55;;;;;;;6.75;6.15;;;;;;;3.05;43.64;95604.13;4297934;33;20193;-61
2022/03/12 00:21:23;;;;;;;6.87;6.18;;;;;;;3.15;43.62;95607.91;4291342;33;20182;-63
2022/03/12 00:23:50;;;;;;;5.93;5.43;;;;;;;3.25;43.06;95611.50;4296784;33;20191;-61
2022/03/12 00:26:17;;;;;;;6.25;5.28;;;;;;;3.04;43.50;95599.12;4313749;33;20272;-61
2022/03/12 00:28:44;;;;;;;6.75;6.12;;;;;;;3.17;43.33;95611.88;4294370;33;20282;-61
2022/03/12 00:31:10;;;;;;;6.03;5.43;;;;;;;3.10;43.55;95613.88;4297144;33;20198;-60
2022/03/12 00:33:36;;;;;;;5.97;5.47;;;;;;;2.86;43.87;95617.69;4291164;33;20193;-61
2022/03/12 00:36:02;;;;;;;6.37;5.77;;;;;;;3.06;43.60;95607.53;4302258;33;20175;-60
2022/03/12 00:38:29;;;;;;;6.00;5.40;;;;;;;2.95;43.68;95616.25;4310089;33;20177;-61
2022/03/12 00:40:55;;;;;;;6.30;5.67;;;;;;;2.96;43.76;95602.13;4289887;33;20193;-61
2022/03/12 00:43:21;;;;;;;7.73;5.93;;;;;;;2.82;44.02;95606.88;4315553;33;20177;-61
2022/03/12 00:45:47;;;;;;;6.53;5.90;;;;;;;2.68;44.16;95610.84;4301162;33;20190;-61
2022/03/12 00:48:13;;;;;;;9.80;5.37;;;;;;;2.68;44.20;95619.50;4293076;33;20191;-61
2022/03/12 00:50:39;;;;;;;6.07;5.47;;;;;;;2.87;43.55;95621.91;4314574;33;20217;-60
2022/03/12 00:53:04;;;;;;;5.43;4.97;;;;;;;2.74;43.86;95634.25;4294876;33;20238;-61
2022/03/12 00:55:30;;;;;;;6.93;5.07;;;;;;;2.79;43.98;95633.53;4293438;33;20182;-61
2022/03/12 00:57:55;;;;;;;5.40;4.90;;;;;;;2.57;44.21;95633.44;4309885;33;20253;-61
2022/03/12 01:00:24;;;;;;;9.17;6.17;;;;;;;2.91;43.77;95625.63;4297422;33;20186;-61
2022/03/12 01:02:49;;;;;;;5.55;5.05;;;;;;;2.79;44.02;95630.12;4304255;33;20245;-61
2022/03/12 01:05:18;;;;;;;5.63;5.13;;;;;;;2.87;43.94;95632.38;4313177;33;20194;-61
2022/03/12 01:07:45;;;;;;;5.37;4.87;;;;;;;2.75;44.15;95637.66;4302921;33;20221;-61
2022/03/12 01:10:11;;;;;;;6.20;5.62;;;;;;;2.83;44.01;95632.06;4313200;33;20197;-61
2022/03/12 01:12:36;;;;;;;6.05;5.00;;;;;;;2.69;44.18;95628.16;4299708;33;20204;-61
2022/03/12 01:15:03;;;;;;;5.00;4.60;;;;;;;2.65;44.32;95632.25;4302675;33;20182;-61
2022/03/12 01:17:31;;;;;;;5.78;4.82;;;;;;;2.81;44.07;95634.09;4301995;33;20191;-61
2022/03/12 01:19:56;;;;;;;6.03;4.90;;;;;;;2.86;43.98;95633.41;4294239;33;20216;-61
2022/03/12 01:22:21;;;;;;;7.00;5.47;;;;;;;2.89;43.90;95638.19;4308308;33;20191;-61
2022/03/12 01:24:47;;;;;;;6.23;5.63;;;;;;;2.84;43.87;95636.25;4302641;33;20216;-60
2022/03/12 01:27:15;;;;;;;5.77;5.27;;;;;;;2.95;43.81;95622.28;4294653;33;20194;-60
2022/03/12 01:29:44;;;;;;;5.65;5.07;;;;;;;3.03;43.67;95627.13;4298003;33;20290;-60
2022/03/12 01:32:09;;;;;;;5.70;5.20;;;;;;;3.18;43.50;95625.78;4301545;33;20229;-61
2022/03/12 01:34:35;;;;;;;7.27;5.63;;;;;;;3.15;43.51;95626.25;4290065;33;20182;-61
2022/03/12 01:37:01;;;;;;;5.23;4.73;;;;;;;3.01;43.73;95623.16;4291490;33;20213;-61
2022/03/12 01:39:27;;;;;;;6.20;5.60;;;;;;;3.02;43.81;95627.38;4308093;33;20205;-61
2022/03/12 01:41:53;;;;;;;5.72;5.15;;;;;;;2.91;44.18;95628.25;4288635;33;20216;-61
2022/03/12 01:44:20;;;;;;;6.23;5.40;;;;;;;3.11;43.58;95631.19;4296797;33;20182;-61
2022/03/12 01:46:47;;;;;;;6.05;5.55;;;;;;;2.82;44.07;95624.44;4311575;33;20190;-61
2022/03/12 01:49:16;;;;;;;5.80;5.25;;;;;;;2.85;44.08;95621.34;4296975;33;20192;-61
2022/03/12 01:51:44;;;;;;;5.75;5.20;;;;;;;2.68;44.63;95622.12;4288473;33;20191;-61
2022/03/12 01:54:10;;;;;;;6.05;5.53;;;;;;;2.86;44.18;95615.88;4304712;33;20257;-61
2022/03/12 01:56:38;;;;;;;6.12;5.53;;;;;;;2.74;44.30;95615.91;4306372;33;20197;-61
2022/03/12 01:59:04;;;;;;;9.45;5.43;;;;;;;2.57;44.72;95622.97;4309651;33;20205;-61
2022/03/12 02:01:30;;;;;;;7.28;5.07;;;;;;;2.54;44.59;95620.81;4291800;33;20187;-61
2022/03/12 02:03:56;;;;;;;5.43;4.80;;;;;;;2.51;44.36;95615.25;4296970;33;20238;-61
2022/03/12 02:06:24;;;;;;;5.37;4.90;;;;;;;2.67;44.24;95615.28;4301934;33;20210;-61
2022/03/12 02:08:53;;;;;;;6.78;5.22;;;;;;;2.56;44.25;95621.38;4306936;33;20218;-61
2022/03/12 02:11:26;;;;;;;5.28;4.87;;;;;;;2.45;44.79;95622.22;4311887;33;20202;-61
2022/03/12 02:14:08;;;;;;;5.20;4.70;;;;;;;2.57;44.68;95619.53;4299303;33;20191;-61
2022/03/12 02:16:34;;;;;;;6.22;5.60;;;;;;;2.65;44.39;95619.97;4281414;33;20230;-61
2022/03/12 02:19:00;;;;;;;5.20;4.78;;;;;;;2.39;44.71;95620.53;4294886;33;20191;-62
2022/03/12 02:21:34;;;;;;;5.27;4.83;;;;;;;2.59;44.49;95618.28;4291987;33;20170;-61
2022/03/12 02:24:00;;;;;;;5.65;5.22;;;;;;;2.46;44.59;95612.56;4293325;33;20195;-61
2022/03/12 02:26:25;;;;;;;5.60;5.10;;;;;;;2.54;44.63;95620.00;4304507;33;20182;-61
2022/03/12 02:28:50;;;;;;;6.10;4.93;;;;;;;2.38;44.91;95617.13;4293420;33;20166;-61
2022/03/12 02:31:16;;;;;;;7.00;5.20;;;;;;;2.54;44.75;95612.16;4304380;33;20179;-61
2022/03/12 02:33:43;;;;;;;8.40;4.77;;;;;;;2.47;44.85;95617.56;4303855;33;20178;-61
2022/03/12 02:36:12;;;;;;;5.90;5.37;;;;;;;2.54;44.56;95617.38;4304969;33;20182;-61
2022/03/12 02:38:38;;;;;;;5.95;5.37;;;;;;;2.55;44.73;95617.16;4277749;33;20190;-58
2022/03/12 02:41:10;;;;;;;5.77;5.23;;;;;;;2.51;44.81;95616.03;4312197;33;20174;-61
2022/03/12 02:43:43;;;;;;;6.75;4.87;;;;;;;2.63;44.63;95622.03;4303913;33;20209;-61
2022/03/12 02:46:09;;;;;;;5.50;5.00;;;;;;;2.66;44.44;95629.41;4301061;33;20241;-61
2022/03/12 02:48:34;;;;;;;5.30;4.80;;;;;;;2.58;44.59;95636.84;4292791;33;20187;-60
2022/03/12 02:50:59;;;;;;;5.87;5.37;;;;;;;2.52;44.97;95638.56;4316756;33;20190;-61
2022/03/12 02:53:25;;;;;;;6.63;5.80;;;;;;;2.56;44.72;95628.44;4294422;33;20174;-61
2022/03/12 02:55:51;;;;;;;8.60;5.30;;;;;;;2.55;44.83;95632.88;4304561;33;20174;-61
2022/03/12 02:58:17;;;;;;;5.87;5.25;;;;;;;2.43;45.16;95634.75;4301279;33;20182;-60
2022/03/12 03:00:42;;;;;;;5.87;5.27;;;;;;;2.57;45.05;95633.44;4306531;33;20225;-61
2022/03/12 03:03:08;;;;;;;6.20;5.60;;;;;;;2.61;44.88;95631.13;4314879;33;20179;-61
2022/03/12 03:05:46;;;;;;;7.33;5.00;;;;;;;2.32;45.13;95640.81;4298940;33;20191;-61
2022/03/12 03:08:16;;;;;;;6.22;5.30;;;;;;;2.47;45.32;95640.31;4290027;33;20187;-60
2022/03/12 03:10:44;;;;;;;6.37;5.75;;;;;;;2.21;46.16;95641.66;4300748;33;20263;-61
2022/03/12 03:13:31;;;;;;;7.82;5.47;;;;;;;2.30;45.91;95645.47;4275730;33;20242;-62
2022/03/12 03:16:01;;;;;;;5.80;5.25;;;;;;;2.36;45.56;95634.09;4279025;33;20206;-61
2022/03/12 03:18:31;;;;;;;6.10;5.53;;;;;;;2.24;45.55;95639.38;4288530;33;20205;-61
2022/03/12 03:20:58;;;;;;;5.70;5.20;;;;;;;2.24;46.25;95641.19;4302091;33;20194;-60
2022/03/12 03:23:27;;;;;;;6.25;5.65;;;;;;;2.05;46.75;95643.19;4275453;33;20242;-61
2022/03/12 03:25:53;;;;;;;6.80;5.40;;;;;;;1.84;47.43;95647.22;4289293;33;20190;-61
2022/03/12 03:28:18;;;;;;;6.77;5.30;;;;;;;1.94;47.14;95638.75;4289115;33;20233;-60
2022/03/12 03:30:44;;;;;;;6.57;5.53;;;;;;;2.32;46.18;95644.22;4302977;33;20309;-61
2022/03/12 03:33:11;;;;;;;6.83;5.40;;;;;;;2.39;45.94;95636.25;4285370;33;20201;-62
2022/03/12 03:35:40;;;;;;;5.93;5.30;;;;;;;2.50;45.65;95640.63;4277758;33;20183;-61
2022/03/12 03:38:07;;;;;;;7.30;5.30;;;;;;;2.43;45.90;95637.38;4288553;33;20190;-61
2022/03/12 03:40:32;;;;;;;8.15;5.50;;;;;;;2.50;45.88;95638.00;4297937;33;20187;-61
2022/03/12 03:42:58;;;;;;;7.03;6.20;;;;;;;2.54;45.59;95641.75;4288588;33;20186;-61
2022/03/12 03:45:27;;;;;;;6.40;5.80;;;;;;;2.51;45.77;95646.66;4301315;33;20292;-61
2022/03/12 03:47:54;;;;;;;7.70;5.40;;;;;;;2.60;45.62;95645.25;4275434;33;20242;-61
2022/03/12 03:50:22;;;;;;;5.60;5.03;;;;;;;2.66;45.49;95658.22;4289092;33;20195;-61
2022/03/12 03:52:47;;;;;;;5.47;4.97;;;;;;;2.48;45.89;95655.78;4287462;33;20199;-61
2022/03/12 03:55:13;;;;;;;6.17;5.30;;;;;;;2.66;45.54;95670.50;4287815;33;20190;-61
2022/03/12 03:57:38;;;;;;;5.53;5.00;;;;;;;2.43;46.09;95663.56;4289787;33;20194;-61
2022/03/12 04:00:05;;;;;;;5.60;5.17;;;;;;;2.51;46.00;95660.53;4296138;33;20187;-61
2022/03/12 04:02:30;;;;;;;7.75;6.00;;;;;;;2.39;46.44;95649.34;4299517;33;20187;-61
2022/03/12 04:04:56;;;;;;;7.00;5.40;;;;;;;2.38;47.03;95642.50;4272918;33;20232;-61
2022/03/12 04:07:21;;;;;;;5.07;4.63;;;;;;;2.28;46.68;95648.37;4272606;33;20210;-61
2022/03/12 04:09:46;;;;;;;5.57;5.17;;;;;;;2.46;46.04;95644.75;4286131;33;20187;-60
2022/03/12 04:12:12;;;;;;;6.60;5.90;;;;;;;2.37;46.30;95640.91;4281026;33;20275;-61
2022/03/12 04:14:37;;;;;;;6.20;5.57;;;;;;;2.46;46.14;95655.22;4303199;33;20182;-61
2022/03/12 04:17:05;;;;;;;7.10;5.33;;;;;;;2.61;45.66;95646.84;4295464;33;20246;-60
2022/03/12 04:19:30;;;;;;;6.15;5.65;;;;;;;2.39;46.12;95642.28;4299470;33;20220;-61
2022/03/12 04:21:57;;;;;;;5.40;4.90;;;;;;;2.48;46.20;95639.28;4301361;33;20194;-61
2022/03/12 04:24:23;;;;;;;10.93;5.85;;;;;;;2.34;46.35;95636.94;4302614;33;20242;-61
2022/03/12 04:26:50;;;;;;;6.00;5.43;;;;;;;2.32;46.95;95632.97;4299650;33;20198;-61
2022/03/12 04:29:18;;;;;;;5.43;4.93;;;;;;;2.42;46.46;95636.56;4291456;33;20293;-60
2022/03/12 04:31:47;;;;;;;5.82;5.37;;;;;;;2.07;46.99;95641.13;4291253;33;20194;-60
2022/03/12 04:34:13;;;;;;;7.07;5.45;;;;;;;2.29;46.73;95638.66;4315402;33;20209;-60
2022/03/12 04:36:41;;;;;;;8.10;5.68;;;;;;;2.19;46.98;95644.50;4317129;33;20213;-62
2022/03/12 04:39:10;;;;;;;5.70;5.05;;;;;;;1.96;47.49;95640.13;4314319;33;20205;-61
2022/03/12 04:41:36;;;;;;;5.47;4.97;;;;;;;2.15;47.06;95643.38;4304021;33;20194;-60
2022/03/12 04:44:04;;;;;;;5.97;5.47;;;;;;;2.21;46.92;95641.66;4300195;33;20233;-60
2022/03/12 04:46:29;;;;;;;7.68;6.22;;;;;;;2.16;47.25;95644.97;4278515;33;20194;-61
2022/03/12 04:48:55;;;;;;;5.87;5.10;;;;;;;2.01;47.83;95645.47;4293766;33;20208;-61
2022/03/12 04:51:20;;;;;;;6.50;5.30;;;;;;;1.91;47.84;95642.63;4297456;33;20203;-61
2022/03/12 04:53:45;;;;;;;8.33;5.47;;;;;;;2.11;47.80;95646.69;4300418;33;20206;-61
2022/03/12 04:56:11;;;;;;;5.80;5.23;;;;;;;2.06;47.79;95660.47;4302525;33;20186;-61
2022/03/12 04:58:37;;;;;;;6.97;5.23;;;;;;;2.11;47.54;95647.47;4290820;33;20190;-61
2022/03/12 05:01:07;;;;;;;6.40;5.18;;;;;;;1.99;47.88;95650.13;4289137;33;20241;-61
2022/03/12 05:03:32;;;;;;;7.75;5.70;;;;;;;1.89;48.16;95659.59;4294973;33;20253;-60
2022/03/12 05:05:59;;;;;;;6.17;5.57;;;;;;;1.90;48.19;95651.50;4317130;33;20257;-61
2022/03/12 05:08:28;;;;;;;5.65;5.15;;;;;;;1.94;47.96;95663.09;4304938;33;20277;-61
2022/03/12 05:10:56;;;;;;;5.10;4.55;;;;;;;1.88;48.48;95656.16;4312779;33;20202;-61
2022/03/12 05:13:23;;;;;;;7.15;6.37;;;;;;;1.96;47.92;95660.25;4301752;33;20183;-60
2022/03/12 05:15:51;;;;;;;6.82;5.53;;;;;;;1.98;47.87;95668.69;4314741;33;20198;-61
2022/03/12 05:18:18;;;;;;;6.25;5.53;;;;;;;2.09;47.96;95660.00;4288840;33;20178;-60
2022/03/12 05:20:43;;;;;;;6.75;5.55;;;;;;;1.98;47.60;95679.13;4293179;33;20273;-61
2022/03/12 05:23:10;;;;;;;6.50;5.83;;;;;;;1.97;47.71;95661.84;4301914;33;20194;-60
2022/03/12 05:25:40;;;;;;;6.07;5.30;;;;;;;2.06;47.90;95674.34;4290474;33;20178;-61
2022/03/12 05:28:06;;;;;;;6.05;5.45;;;;;;;2.16;47.56;95675.56;4302307;33;20205;-61
2022/03/12 05:30:31;;;;;;;6.03;5.33;;;;;;;2.20;47.41;95674.09;4301454;33;20245;-61
2022/03/12 05:32:57;;;;;;;6.80;5.70;;;;;;;2.10;47.50;95682.50;4308381;33;20312;-61
2022/03/12 05:35:23;;;;;;;7.63;5.63;;;;;;;2.11;47.68;95675.47;4295953;33;20233;-61
2022/03/12 05:37:51;;;;;;;8.70;5.63;;;;;;;1.74;48.00;95678.38;4300862;33;20275;-61
2022/03/12 05:40:19;;;;;;;6.12;5.53;;;;;;;1.83;48.06;95687.47;4295235;33;20257;-60
2022/03/12 05:42:46;;;;;;;6.50;5.78;;;;;;;2.07;47.65;95688.25;4300506;33;20248;-61
2022/03/12 05:45:12;;;;;;;7.72;5.82;;;;;;;2.00;47.81;95688.34;4298926;33;20190;-60
2022/03/12 05:47:39;;;;;;;8.00;5.90;;;;;;;1.88;48.08;95689.38;4305541;33;20201;-61
2022/03/12 05:50:09;;;;;;;5.45;5.05;;;;;;;2.00;48.08;95692.78;4306389;33;20202;-61
2022/03/12 05:52:40;;;;;;;5.78;5.18;;;;;;;2.03;47.89;95698.34;4301502;33;20246;-61
2022/03/12 05:55:08;;;;;;;6.22;5.62;;;;;;;1.96;48.19;95696.88;4305062;33;20212;-61
2022/03/12 05:57:35;;;;;;;5.80;5.30;;;;;;;1.58;49.06;95702.59;4303481;33;20202;-61
2022/03/12 06:00:02;;;;;;;6.20;5.60;;;;;;;1.61;49.59;95704.75;4312670;33;20182;-61
2022/03/12 06:02:28;;;;;;;6.97;5.00;;;;;;;1.45;49.84;95710.66;4293953;33;20225;-61
2022/03/12 06:04:55;;;;;;;8.52;6.00;;;;;;;1.23;50.12;95718.25;4293913;33;20198;-61
2022/03/12 06:07:25;;;;;;;5.85;5.35;;;;;;;1.49;49.95;95717.00;4315256;33;20201;-61
2022/03/12 06:09:50;;;;;;;6.85;5.80;;;;;;;1.38;49.95;95723.84;4304540;33;20186;-61
2022/03/12 06:12:17;;;;;;;6.97;6.20;;;;;;;1.36;50.39;95718.03;4304530;33;20212;-61
2022/03/12 06:14:46;;;;;;;7.75;6.70;;;;;;;1.35;50.83;95722.47;4314944;33;20224;-60
2022/03/12 06:17:13;;;;;;;6.90;5.43;;;;;;;1.46;50.58;95727.91;4299119;33;20182;-60
2022/03/12 06:19:38;;;;;;;6.95;5.85;;;;;;;1.47;50.54;95727.69;4291555;33;20253;-60
2022/03/12 06:22:04;;;;;;;8.40;6.23;;;;;;;1.36;50.54;95720.66;4298043;33;20206;-61
2022/03/12 06:24:30;;;;;;;8.43;6.12;;;;;;;0.88;51.83;95728.59;4303078;33;20186;-61
2022/03/12 06:26:55;;;;;;;6.10;5.50;;;;;;;1.06;52.16;95733.75;4310322;33;20264;-61
2022/03/12 06:29:21;;;;;;;9.27;6.17;;;;;;;1.10;52.30;95734.91;4312486;33;20198;-61
2022/03/12 06:31:47;;;;;;;9.67;6.20;;;;;;;1.31;51.71;95739.59;4311158;33;20194;-61
2022/03/12 06:34:12;;;;;;;6.97;5.57;;;;;;;1.41;51.37;95739.06;4318040;33;20198;-61
2022/03/12 06:36:39;;;;;;;6.57;5.97;;;;;;;1.71;50.75;95738.97;4313188;33;20294;-60
2022/03/12 06:39:05;;;;;;;6.30;5.75;;;;;;;1.83;50.44;95733.75;4291086;33;20237;-61
2022/03/12 06:41:35;;;;;;;8.80;5.93;;;;;;;1.70;50.97;95745.22;4305143;33;20241;-61
2022/03/12 06:44:02;;;;;;;7.55;5.70;;;;;;;1.83;50.53;95744.22;4302545;33;20201;-61
2022/03/12 06:46:28;;;;;;;10.93;6.97;;;;;;;2.10;49.82;95741.91;4292052;33;20198;-61
2022/03/12 06:48:53;;;;;;;10.17;6.00;;;;;;;2.16;49.59;95748.84;4306571;33;20256;-61
2022/03/12 06:51:18;;;;;;;9.40;6.70;;;;;;;2.06;50.05;95744.19;4312935;33;20225;-60
2022/03/12 06:53:44;;;;;;;8.10;6.60;;;;;;;2.21;49.85;95746.34;4303333;33;20233;-61
2022/03/12 06:56:09;;;;;;;7.40;6.70;;;;;;;2.27;49.72;95746.22;4295919;33;20190;-60
2022/03/12 06:58:36;;;;;;;7.97;6.77;;;;;;;1.96;50.29;95750.00;4303773;33;20190;-61
2022/03/12 07:01:04;;;;;;;7.20;6.45;;;;;;;1.61;51.65;95752.62;4302349;33;20190;-61
2022/03/12 07:03:29;;;;;;;7.25;6.55;;;;;;;1.67;51.66;95751.69;4303584;33;20225;-61
2022/03/12 07:05:55;;;;;;;8.33;7.00;;;;;;;1.51;52.00;95746.34;4294240;33;20226;-61
2022/03/12 07:08:21;;;;;;;7.37;6.67;;;;;;;1.60;52.10;95758.06;4303789;33;20224;-60
2022/03/12 07:10:47;;;;;;;9.20;6.68;;;;;;;1.70;52.06;95756.47;4302405;33;20216;-61
2022/03/12 07:13:12;;;;;;;7.53;6.70;;;;;;;1.92;51.49;95754.09;4292236;33;20257;-61
2022/03/12 07:15:38;;;;;;;7.03;6.33;;;;;;;2.04;51.29;95757.50;4293012;33;20206;-62
2022/03/12 07:18:04;;;;;;;9.07;7.17;;;;;;;2.14;51.22;95759.53;4298332;33;20237;-61
2022/03/12 07:20:29;;;;;;;8.33;7.00;;;;;;;2.12;51.21;95758.16;4306399;33;20208;-60
2022/03/12 07:22:55;;;;;;;7.87;6.57;;;;;;;2.45;51.03;95755.75;4311975;33;20226;-61
2022/03/12 07:25:20;;;;;;;10.73;6.30;;;;;;;2.48;50.45;95755.28;4315479;33;20205;-61
2022/03/12 07:27:45;;;;;;;7.73;6.93;;;;;;;2.73;49.92;95750.53;4293511;33;20206;-61
2022/03/12 07:30:14;;;;;;;8.20;6.67;;;;;;;2.89;49.64;95749.00;4303252;33;20249;-61
2022/03/12 07:32:42;;;;;;;9.82;7.53;;;;;;;2.80;49.88;95752.22;4302304;33;20209;-61
2022/03/12 07:35:08;;;;;;;7.40;6.25;;;;;;;2.62;50.36;95742.72;4290905;33;20230;-61
2022/03/12 07:37:34;;;;;;;7.68;6.87;;;;;;;2.69;50.37;95759.88;4306419;33;20206;-61
2022/03/12 07:39:59;;;;;;;7.87;6.90;;;;;;;2.95;49.89;95755.09;4302473;33;20266;-61
2022/03/12 07:42:24;;;;;;;8.60;6.93;;;;;;;2.85;49.92;95757.56;4297827;33;20241;-61
2022/03/12 07:44:50;;;;;;;7.93;7.20;;;;;;;3.19;49.61;95753.19;4316157;33;20206;-61
2022/03/12 07:47:15;;;;;;;8.40;7.50;;;;;;;3.22;49.51;95758.75;4312821;33;20309;-61
2022/03/12 07:49:41;;;;;;;12.67;8.60;;;;;;;3.16;49.65;95753.66;4301396;33;20198;-61
2022/03/12 07:52:06;;;;;;;11.20;8.03;;;;;;;3.12;50.11;95757.78;4281607;33;20182;-61
2022/03/12 07:54:35;;;;;;;8.03;7.10;;;;;;;3.10;50.10;95753.56;4290339;33;20222;-61
2022/03/12 07:57:01;;;;;;;8.15;7.32;;;;;;;3.12;50.31;95750.69;4314373;33;20256;-61
2022/03/12 07:59:27;;;;;;;10.40;7.50;;;;;;;3.17;50.24;95748.16;4297293;33;20198;-61
2022/03/12 08:01:52;;;;;;;13.25;7.50;;;;;;;3.34;50.04;95750.81;4317507;33;20253;-61
2022/03/12 08:04:18;;;;;;;11.40;7.43;;;;;;;3.50;49.71;95749.25;4301607;33;20237;-61
2022/03/12 08:06:43;;;;;;;15.00;7.50;;;;;;;3.49;49.62;95753.69;4301762;33;20187;-61
2022/03/12 08:09:09;;;;;;;10.87;7.50;;;;;;;3.61;49.98;95751.00;4290422;33;20190;-61
2022/03/12 08:11:35;;;;;;;8.17;7.27;;;;;;;3.71;49.61;95751.97;4309554;33;20264;-61
2022/03/12 08:14:09;;;;;;;10.90;8.57;;;;;;;3.80;49.44;95747.09;4300269;33;20190;-61
2022/03/12 08:16:35;;;;;;;10.27;7.93;;;;;;;3.99;49.51;95748.41;4304376;33;20228;-61
2022/03/12 08:19:06;;;;;;;10.30;8.10;;;;;;;4.10;49.57;95758.03;4303067;33;20299;-61
2022/03/12 08:21:32;;;;;;;11.50;8.20;;;;;;;4.08;49.42;95757.47;4309924;33;20300;-61
2022/03/12 08:23:58;;;;;;;11.03;9.17;;;;;;;4.20;49.11;95753.94;4305828;33;21769;-61
2022/03/12 08:26:23;;;;;;;10.27;9.17;;;;;;;4.52;48.33;95747.03;4306132;33;20290;-61
2022/03/12 08:28:49;;;;;;;11.47;8.63;;;;;;;4.54;48.05;95750.22;4293758;33;20198;-61
2022/03/12 08:31:14;;;;;;;10.50;9.40;;;;;;;4.70;49.01;95754.59;4300355;33;20431;-61
2022/03/12 08:33:40;;;;;;;10.97;9.17;;;;;;;4.66;48.30;95748.25;4303236;33;20190;-61
2022/03/12 08:36:06;;;;;;;11.40;9.40;;;;;;;4.63;48.73;95742.69;4307963;33;20262;-61
2022/03/12 08:38:34;;;;;;;10.67;9.33;;;;;;;4.81;47.96;95756.28;4303025;33;20194;-61
2022/03/12 08:41:01;;;;;;;12.17;8.30;;;;;;;4.99;47.43;95751.78;4295390;33;20282;-61
2022/03/12 08:43:27;;;;;;;9.60;8.70;;;;;;;5.08;46.94;95753.69;4308709;33;20279;-61
2022/03/12 08:45:52;;;;;;;12.77;10.17;;;;;;;5.00;46.89;95755.97;4292995;33;20309;-61
2022/03/12 08:48:18;;;;;;;10.60;9.27;;;;;;;5.21;46.85;95751.69;4307171;33;20288;-61
2022/03/12 08:50:45;;;;;;;10.83;9.73;;;;;;;5.17;46.79;95748.81;4299256;33;20205;-61
2022/03/12 08:53:11;;;;;;;11.20;9.33;;;;;;;5.23;46.98;95750.41;4292168;33;20275;-61
2022/03/12 08:55:37;;;;;;;14.10;10.33;;;;;;;5.32;46.76;95746.31;4300170;33;20225;-61
2022/03/12 08:58:03;;;;;;;13.37;10.33;;;;;;;5.32;46.79;95738.41;4315732;33;20286;-61
2022/03/12 09:00:28;;;;;;;12.00;9.50;;;;;;;5.37;46.66;95750.81;4302092;33;20401;-62
2022/03/12 09:02:54;;;;;;;11.83;10.50;;;;;;;5.48;46.52;95749.84;4302295;33;20178;-61
2022/03/12 09:05:19;;;;;;;17.00;10.30;;;;;;;5.54;47.06;95756.75;4300551;33;20193;-61
2022/03/12 09:07:45;;;;;;;16.97;11.00;;;;;;;5.60;46.73;95757.59;4292740;33;20222;-61
2022/03/12 09:10:13;;;;;;;12.80;10.70;;;;;;;5.68;46.20;95754.50;4300451;33;20195;-62
2022/03/12 09:12:40;;;;;;;12.43;10.83;;;;;;;5.80;46.13;95755.13;4308778;33;20302;-62
2022/03/12 09:15:06;;;;;;;14.83;11.03;;;;;;;5.82;46.22;95758.28;4302837;33;20294;-61
2022/03/12 09:17:32;;;;;;;15.93;10.87;;;;;;;5.91;47.41;95743.66;4310829;33;20343;-61
2022/03/12 09:19:57;;;;;;;17.63;11.07;;;;;;;5.98;46.49;95743.44;4308397;33;23168;-61
2022/03/12 09:22:23;;;;;;;19.50;11.47;;;;;;;6.16;45.83;95740.37;4310626;33;20214;-61
2022/03/12 09:24:49;;;;;;;14.80;10.30;;;;;;;6.05;46.07;95747.41;4300547;33;20194;-60
2022/03/12 09:27:14;;;;;;;12.67;11.20;;;;;;;6.11;45.98;95738.50;4302882;33;20213;-61
2022/03/12 09:29:40;;;;;;;18.50;11.97;;;;;;;6.19;45.74;95745.16;4294518;33;20305;-61
2022/03/12 09:32:06;;;;;;;12.50;10.80;;;;;;;6.33;45.18;95738.38;4310195;33;20189;-61
2022/03/12 09:34:32;;;;;;;14.63;11.10;;;;;;;6.39;45.12;95739.19;4300508;33;20288;-61
2022/03/12 09:36:57;;;;;;;14.97;11.93;;;;;;;6.50;44.56;95735.53;4302247;33;20203;-61
2022/03/12 09:39:23;;;;;;;17.40;13.53;;;;;;;6.53;44.93;95741.09;4313758;33;20198;-61
2022/03/12 09:41:49;;;;;;;14.77;11.37;;;;;;;6.47;45.63;95741.31;4302143;33;20204;-61
2022/03/12 09:44:15;;;;;;;12.83;11.37;;;;;;;6.58;45.33;95742.19;4310614;33;20190;-61
2022/03/12 09:46:40;;;;;;;12.73;10.77;;;;;;;6.69;44.08;95734.03;4300473;33;20342;-61
2022/03/12 09:49:05;;;;;;;17.73;12.13;;;;;;;6.70;44.09;95735.63;4303685;33;20198;-61
2022/03/12 09:51:31;;;;;;;16.20;10.80;;;;;;;6.74;44.62;95736.69;4295963;33;20190;-61
2022/03/12 09:53:58;;;;;;;13.77;11.03;;;;;;;6.75;44.21;95735.66;4303527;33;20254;-61
2022/03/12 09:56:24;;;;;;;17.67;11.30;;;;;;;6.80;43.83;95737.53;4300347;33;20294;-61
2022/03/12 09:58:50;;;;;;;12.80;10.77;;;;;;;6.92;43.56;95726.72;4301463;33;20283;-61
2022/03/12 10:01:16;;;;;;;13.03;10.87;;;;;;;6.90;43.57;95727.78;4301349;33;20244;-61
2022/03/12 10:03:42;;;;;;;14.57;11.40;;;;;;;7.01;44.51;95735.75;4299638;33;20197;-61
2022/03/12 10:06:08;;;;;;;13.67;10.80;;;;;;;6.99;43.44;95736.00;4296378;33;20186;-61
2022/03/12 10:08:34;;;;;;;12.90;11.40;;;;;;;6.92;43.26;95739.91;4316598;33;20287;-61
2022/03/12 10:10:59;;;;;;;14.23;11.27;;;;;;;7.01;43.30;95730.47;4305397;33;20287;-61
2022/03/12 10:13:25;;;;;;;13.47;11.00;;;;;;;7.13;43.28;95723.09;4300292;33;20232;-61
2022/03/12 10:15:51;;;;;;;15.83;10.33;;;;;;;7.22;43.62;95721.53;4301890;33;20208;-61
2022/03/12 10:18:16;;;;;;;13.50;10.63;;;;;;;7.20;43.19;95724.44;4289504;33;20210;-61
2022/03/12 10:20:42;;;;;;;14.57;11.13;;;;;;;7.37;42.96;95724.19;4301695;33;20283;-60
2022/03/12 10:23:07;;;;;;;12.60;11.27;;;;;;;7.38;42.80;95722.34;4303328;33;20214;-61
2022/03/12 10:25:34;;;;;;;11.87;9.37;;;;;;;7.40;43.03;95717.59;4313852;33;20244;-61
2022/03/12 10:27:59;;;;;;;14.83;10.47;;;;;;;7.42;42.89;95726.03;4294965;33;20257;-61
2022/03/12 10:30:25;;;;;;;11.67;10.43;;;;;;;7.39;43.29;95721.28;4297326;33;20355;-61
2022/03/12 10:32:51;;;;;;;14.17;10.50;;;;;;;7.41;43.17;95725.25;4305305;33;20194;-61
2022/03/12 10:35:22;;;;;;;12.07;9.80;;;;;;;7.47;42.91;95718.13;4305579;33;20291;-61
2022/03/12 10:37:51;;;;;;;13.07;10.07;;;;;;;7.55;42.79;95725.50;4318900;33;20325;-61
2022/03/12 10:40:22;;;;;;;11.67;10.43;;;;;;;7.65;42.94;95716.81;4294787;33;20300;-60
2022/03/12 10:42:52;;;;;;;11.20;9.37;;;;;;;7.62;42.98;95714.69;4304063;33;20306;-61
2022/03/12 10:45:20;;;;;;;11.70;10.47;;;;;;;7.62;43.24;95709.41;4295764;33;20287;-61
2022/03/12 10:47:53;;;;;;;11.37;9.73;;;;;;;7.67;43.84;95714.69;4302995;33;20333;-61
2022/03/12 10:50:22;;;;;;;14.33;10.50;;;;;;;7.69;43.25;95710.72;4299640;33;20275;-60
2022/03/12 10:52:53;;;;;;;13.00;9.57;;;;;;;7.87;43.05;95712.03;4295591;33;20286;-61
2022/03/12 10:55:30;;;;;;;17.10;12.90;;;;;;;7.97;43.21;95706.72;4310567;33;20279;-61
2022/03/12 10:58:00;;;;;;;14.30;11.90;;;;;;;8.00;42.49;95700.91;4304255;33;20334;-61
2022/03/12 11:00:28;;;;;;;12.07;10.60;;;;;;;8.01;42.95;95707.00;4290741;33;20330;-61
2022/03/12 11:02:55;;;;;;;12.97;9.70;;;;;;;7.96;42.86;95710.44;4312561;33;20286;-61
2022/03/12 11:05:26;;;;;;;11.00;9.13;;;;;;;8.13;42.56;95703.00;4301767;33;20275;-61
2022/03/12 11:07:52;;;;;;;13.17;10.33;;;;;;;8.24;42.41;95701.94;4310204;33;20275;-61
2022/03/12 11:10:27;;;;;;;11.60;10.07;;;;;;;8.26;42.32;95707.75;4295099;33;20284;-61
2022/03/12 11:12:55;;;;;;;12.67;10.13;;;;;;;8.28;42.30;95707.47;4299594;33;20384;-60
2022/03/12 11:15:20;;;;;;;11.83;9.83;;;;;;;8.33;42.35;95698.75;4296660;33;20290;-61
2022/03/12 11:17:48;;;;;;;12.43;10.27;;;;;;;8.38;42.21;95706.66;4296521;33;20399;-61
2022/03/12 11:20:21;;;;;;;11.20;10.00;;;;;;;8.47;41.88;95702.41;4302230;33;20216;-61
2022/03/12 11:22:49;;;;;;;11.27;10.07;;;;;;;8.44;42.78;95705.59;4296894;33;20366;-61
2022/03/12 11:25:20;;;;;;;15.83;10.53;;;;;;;8.54;41.79;95702.91;4305033;33;20342;-61
2022/03/12 11:27:50;;;;;;;12.20;10.47;;;;;;;8.59;41.18;95702.87;4296680;33;20361;-61
2022/03/12 11:30:20;;;;;;;13.63;11.10;;;;;;;8.54;41.59;95697.63;4303564;33;20302;-61
2022/03/12 11:32:48;;;;;;;12.17;10.80;;;;;;;8.68;41.21;95692.56;4297089;33;20353;-61
2022/03/12 11:35:18;;;;;;;14.27;11.30;;;;;;;8.72;41.06;95691.75;4318109;33;20282;-62